Time;durP1;ratioP1;P1;durP2;ratioP2;P2;SDS_P1;SDS_P2;PMS_P1;PMS_P2;Temp;Humidity;BMP_temperature;BMP_pressure;BME280_temperature;BME280_humidity;BME280_pressure;Samples;Min_cycle;Max_cycle;Signal;HPM_P1;HPM_P2
2021/12/10 00:00:00;;;;;;;34.10;18.40;;;;;;;1.03;79.41;93895.34;5093707;27;20030;-74
2021/12/10 00:02:32;;;;;;;57.85;26.50;;;;;;;1.02;81.21;93907.34;5115821;27;20042;-73
2021/12/10 00:04:57;;;;;;;39.65;19.95;;;;;;;1.01;80.64;93905.69;5132465;27;20083;-73
2021/12/10 00:07:24;;;;;;;36.00;18.52;;;;;;;1.03;80.66;93909.00;5133805;27;20059;-73
2021/12/10 00:10:00;;;;;;;41.17;24.45;;;;;;;0.93;80.19;93907.91;5116029;27;20050;-73
2021/12/10 00:12:31;;;;;;;32.20;17.27;;;;;;;1.04;79.83;93902.94;5131906;27;20047;-73
2021/12/10 00:14:56;;;;;;;27.70;15.57;;;;;;;1.03;79.95;93896.22;5132410;27;20042;-74
2021/12/10 00:17:23;;;;;;;26.73;14.13;;;;;;;1.07;79.17;93899.41;5113170;27;20035;-73
2021/12/10 00:19:52;;;;;;;26.55;14.40;;;;;;;1.01;80.09;93889.53;5132184;27;20031;-74
2021/12/10 00:22:20;;;;;;;26.80;14.68;;;;;;;0.97;80.12;93890.63;5115549;27;20027;-73
2021/12/10 00:24:47;;;;;;;24.40;13.48;;;;;;;0.97;80.21;93898.28;5132241;27;20031;-73
2021/12/10 00:27:13;;;;;;;23.60;13.18;;;;;;;0.79;80.51;93870.34;5114632;27;20089;-73
2021/12/10 00:29:42;;;;;;;32.65;17.63;;;;;;;0.56;81.78;93876.03;5132556;27;20504;-73
2021/12/10 00:32:17;;;;;;;78.03;38.22;;;;;;;0.52;83.85;93877.09;5096213;27;20475;-74
2021/12/10 00:34:46;;;;;;;70.00;35.33;;;;;;;0.58;83.22;93859.66;5115780;27;20035;-73
2021/12/10 00:37:13;;;;;;;36.60;19.75;;;;;;;0.72;83.19;93873.38;5108860;28;20074;-73
2021/12/10 00:39:44;;;;;;;31.67;17.52;;;;;;;0.80;82.35;93876.28;5112852;28;20036;-73
2021/12/10 00:42:12;;;;;;;46.20;22.30;;;;;;;0.86;81.94;93899.78;5094722;28;20036;-73
2021/12/10 00:44:38;;;;;;;34.78;17.25;;;;;;;0.92;81.82;93897.75;5111598;28;20053;-74
2021/12/10 00:47:03;;;;;;;29.00;14.82;;;;;;;0.99;82.32;93889.63;5112867;28;20464;-74
2021/12/10 00:49:29;;;;;;;29.17;14.95;;;;;;;1.02;82.34;93865.59;5108612;28;20023;-73
2021/12/10 00:51:54;;;;;;;26.08;14.88;;;;;;;1.08;82.55;93876.25;5113104;28;20433;-73
2021/12/10 00:54:20;;;;;;;27.02;14.50;;;;;;;1.06;82.12;93874.75;5093793;28;20035;-73
2021/12/10 00:56:45;;;;;;;24.80;13.88;;;;;;;1.09;81.96;93865.13;5111322;28;20032;-74
2021/12/10 00:59:11;;;;;;;27.63;14.73;;;;;;;1.13;82.18;93852.16;5111427;28;20024;-73
2021/12/10 01:01:37;;;;;;;26.95;15.68;;;;;;;1.22;82.81;93854.94;5094035;28;20067;-73
2021/12/10 01:04:15;;;;;;;27.35;14.27;;;;;;;1.33;82.78;93847.44;5110428;27;20047;-75
2021/12/10 01:06:41;;;;;;;30.48;15.05;;;;;;;1.39;82.32;93840.28;5112186;28;20043;-74
2021/12/10 01:09:19;;;;;;;25.50;14.70;;;;;;;1.31;82.59;93830.56;5093983;28;20023;-73
2021/12/10 01:11:59;;;;;;;32.03;14.95;;;;;;;1.52;82.02;93864.22;5110905;28;20067;-73
2021/12/10 01:14:38;;;;;;;32.70;14.05;;;;;;;1.59;81.94;93857.81;5110665;28;20055;-73
2021/12/10 01:28:00;;;;;;;29.88;14.48;;;;;;;1.85;82.44;93863.00;5112984;28;20118;-73
2021/12/10 01:30:27;;;;;;;29.83;15.70;;;;;;;1.85;81.93;93848.47;5111298;28;20039;-73
2021/12/10 01:32:56;;;;;;;30.17;14.98;;;;;;;1.96;81.52;93845.22;5094577;28;20248;-73
2021/12/10 01:35:25;;;;;;;30.58;14.88;;;;;;;1.94;81.72;93841.91;5112429;28;20513;-74
2021/12/10 01:37:51;;;;;;;27.25;14.80;;;;;;;1.92;80.88;93849.72;5122699;27;20489;-73
2021/12/10 01:40:20;;;;;;;29.67;14.70;;;;;;;1.94;81.21;93840.16;5131653;27;20027;-73
2021/12/10 01:42:48;;;;;;;32.17;15.27;;;;;;;1.87;79.36;93812.50;5131908;27;20030;-73
2021/12/10 01:45:20;;;;;;;39.33;20.58;;;;;;;1.82;79.54;93822.22;5114822;27;20023;-73
2021/12/10 01:47:51;;;;;;;35.13;19.38;;;;;;;1.81;80.13;93823.94;5133321;27;20035;-73
2021/12/10 01:50:16;;;;;;;31.88;15.52;;;;;;;1.88;80.87;93826.94;5114935;27;20076;-74
2021/12/10 01:52:42;;;;;;;26.13;14.40;;;;;;;1.83;80.64;93824.69;5097255;27;20039;-74
2021/12/10 01:55:08;;;;;;;28.90;15.30;;;;;;;1.83;81.62;93823.84;5131455;27;20023;-74
2021/12/10 01:57:35;;;;;;;30.15;15.35;;;;;;;1.88;82.28;93821.81;5131630;27;20175;-74
2021/12/10 02:00:03;;;;;;;30.02;15.98;;;;;;;1.90;81.87;93813.13;5132484;27;20481;-74
2021/12/10 02:02:30;;;;;;;30.67;16.33;;;;;;;1.87;81.59;93802.28;5131516;27;20088;-74
2021/12/10 02:04:55;;;;;;;29.73;16.17;;;;;;;1.93;82.68;93804.44;5131243;27;20020;-74
2021/12/10 02:07:23;;;;;;;32.40;16.02;;;;;;;2.04;82.12;93807.09;5113804;27;20051;-73
2021/12/10 02:09:48;;;;;;;33.85;16.35;;;;;;;2.08;82.48;93800.84;5131122;27;20037;-74
2021/12/10 02:12:15;;;;;;;28.27;15.93;;;;;;;2.15;81.65;93803.84;5114094;27;20023;-74
2021/12/10 02:14:41;;;;;;;32.13;15.90;;;;;;;2.16;81.80;93808.84;5114006;27;20087;-74
2021/12/10 02:17:07;;;;;;;26.15;13.55;;;;;;;2.18;81.44;93801.88;5131171;27;20019;-73
2021/12/10 02:19:34;;;;;;;27.90;14.60;;;;;;;2.14;81.63;93777.38;5113962;27;20266;-73
2021/12/10 02:22:00;;;;;;;30.40;15.55;;;;;;;2.12;81.95;93769.00;5131125;27;20029;-73
2021/12/10 02:24:25;;;;;;;27.42;14.18;;;;;;;2.20;81.77;93786.41;5132076;27;20102;-73
2021/12/10 02:26:55;;;;;;;25.05;12.05;;;;;;;2.15;79.90;93786.72;5113908;27;20414;-73
2021/12/10 02:29:21;;;;;;;19.95;12.02;;;;;;;2.02;79.72;93793.56;5131911;27;20491;-73
2021/12/10 02:31:47;;;;;;;63.85;26.10;;;;;;;1.87;81.50;93776.66;5113889;27;20027;-73
2021/12/10 02:34:12;;;;;;;54.47;26.42;;;;;;;1.88;82.38;93776.53;5113616;27;20043;-73
2021/12/10 02:36:41;;;;;;;43.92;23.25;;;;;;;1.95;82.16;93789.75;5128872;27;20035;-74
2021/12/10 02:39:08;;;;;;;31.98;17.67;;;;;;;1.93;81.13;93782.19;5110237;28;20417;-73
2021/12/10 02:41:34;;;;;;;31.45;16.10;;;;;;;1.89;81.14;93792.72;5093338;28;20057;-74
2021/12/10 02:43:59;;;;;;;23.83;13.18;;;;;;;1.82;79.89;93801.75;5111354;28;20027;-73
2021/12/10 02:46:25;;;;;;;20.23;12.15;;;;;;;1.75;79.84;93801.28;5110055;28;20044;-73
2021/12/10 02:48:51;;;;;;;26.80;15.27;;;;;;;1.64;81.89;93789.19;5093107;28;20031;-73
2021/12/10 02:51:16;;;;;;;26.50;14.85;;;;;;;1.64;80.96;93791.75;5092950;28;20398;-73
2021/12/10 02:53:44;;;;;;;22.75;12.40;;;;;;;1.66;80.54;93784.78;5093023;28;20486;-73
2021/12/10 02:56:11;;;;;;;24.83;13.82;;;;;;;1.69;79.79;93794.00;5093269;28;20031;-73
2021/12/10 02:58:37;;;;;;;65.10;32.08;;;;;;;1.74;80.70;93799.66;5110032;28;20107;-73
2021/12/10 03:01:07;;;;;;;38.25;21.38;;;;;;;1.77;80.91;93804.59;5109890;28;20023;-73
2021/12/10 03:03:34;;;;;;;33.45;19.00;;;;;;;1.72;81.08;93802.31;5110035;28;20115;-74
2021/12/10 03:05:59;;;;;;;24.40;14.43;;;;;;;1.68;80.75;93807.75;5109664;28;20055;-73
2021/12/10 03:08:25;;;;;;;31.02;16.15;;;;;;;1.65;80.90;93811.31;5111116;28;20020;-74
2021/12/10 03:10:50;;;;;;;30.05;16.42;;;;;;;1.63;80.26;93818.28;5109833;28;20038;-74
2021/12/10 03:13:15;;;;;;;36.75;19.10;;;;;;;1.65;80.39;93810.50;5092789;28;20024;-74
2021/12/10 03:15:41;;;;;;;98.28;40.13;;;;;;;1.42;81.62;93788.91;5109745;28;20031;-73
2021/12/10 03:18:12;;;;;;;138.63;52.75;;;;;;;1.35;82.09;93775.69;5092838;28;20023;-74
2021/12/10 03:20:37;;;;;;;84.38;35.92;;;;;;;1.43;82.18;93795.69;5093291;28;20023;-74
2021/12/10 03:23:03;;;;;;;52.75;28.88;;;;;;;1.37;81.86;93791.78;5110997;28;20089;-74
2021/12/10 03:25:28;;;;;;;40.47;22.88;;;;;;;1.34;82.11;93790.22;5110920;28;20024;-74
2021/12/10 03:27:54;;;;;;;44.10;24.92;;;;;;;1.33;83.30;93792.88;5111462;28;20100;-74
2021/12/10 03:30:22;;;;;;;56.03;30.55;;;;;;;1.40;83.00;93790.78;5092708;28;20413;-74
2021/12/10 03:32:47;;;;;;;33.10;19.25;;;;;;;1.38;82.11;93792.59;5109806;28;20085;-74
2021/12/10 03:35:22;;;;;;;32.80;17.50;;;;;;;1.39;82.75;93805.28;5109578;28;20035;-74
2021/12/10 03:37:48;;;;;;;27.60;14.82;;;;;;;1.37;82.58;93806.31;5088236;28;20035;-74
2021/12/10 03:40:15;;;;;;;46.67;26.50;;;;;;;1.32;82.20;93804.84;5130064;28;20035;-74
2021/12/10 03:42:43;;;;;;;70.70;37.42;;;;;;;1.29;82.37;93782.03;5113122;28;20027;-74
2021/12/10 03:45:08;;;;;;;46.80;24.80;;;;;;;1.28;81.83;93777.00;5112899;28;20038;-74
2021/12/10 03:47:34;;;;;;;30.63;16.58;;;;;;;1.31;82.48;93782.75;5130247;28;20028;-74
2021/12/10 03:49:59;;;;;;;19.90;11.38;;;;;;;1.40;83.09;93806.13;5129996;28;20508;-74
2021/12/10 03:52:25;;;;;;;16.02;8.93;;;;;;;1.37;82.44;93806.31;5113074;28;20039;-74
2021/12/10 03:54:50;;;;;;;21.23;9.30;;;;;;;1.59;84.16;93805.75;5129915;28;20038;-74
2021/12/10 03:57:16;;;;;;;23.38;9.77;;;;;;;1.78;84.82;93799.38;5130034;27;20028;-74
2021/12/10 03:59:41;;;;;;;22.48;10.85;;;;;;;1.90;85.61;93802.88;5112935;27;20023;-73
2021/12/10 04:02:08;;;;;;;90.47;49.70;;;;;;;1.88;84.86;93804.72;5133779;27;20479;-73
2021/12/10 04:04:45;;;;;;;75.32;45.40;;;;;;;1.89;83.53;93808.09;5133599;27;20038;-73
2021/12/10 04:07:17;;;;;;;97.93;49.88;;;;;;;1.62;84.67;93808.16;5116319;27;20130;-73
2021/12/10 04:09:42;;;;;;;99.72;50.20;;;;;;;1.42;84.91;93799.16;5134684;27;20039;-74
2021/12/10 04:12:08;;;;;;;88.82;44.55;;;;;;;1.58;84.76;93809.25;5116458;27;20103;-73
2021/12/10 04:14:36;;;;;;;81.72;46.08;;;;;;;1.59;84.45;93805.75;5116292;27;20031;-73
2021/12/10 04:17:02;;;;;;;73.88;42.88;;;;;;;1.66;84.38;93807.03;5133482;27;20042;-73
2021/12/10 04:19:28;;;;;;;67.05;41.13;;;;;;;1.62;83.46;93803.84;5116111;27;20027;-73
2021/12/10 04:21:56;;;;;;;45.55;26.77;;;;;;;1.69;83.02;93815.31;5116318;27;20039;-73
2021/12/10 04:24:24;;;;;;;31.50;18.15;;;;;;;1.71;82.37;93816.03;5133415;27;20023;-74
2021/12/10 04:26:50;;;;;;;25.02;12.98;;;;;;;1.71;81.85;93810.94;5116124;27;20024;-73
2021/12/10 04:29:15;;;;;;;28.13;15.43;;;;;;;1.67;81.97;93801.81;5133098;27;20023;-73
2021/12/10 04:31:41;;;;;;;24.63;13.05;;;;;;;1.77;81.72;93817.41;5115836;27;20043;-73
2021/12/10 04:34:06;;;;;;;18.30;10.52;;;;;;;1.75;81.37;93812.34;5132938;27;20027;-73
2021/12/10 04:36:32;;;;;;;20.42;11.98;;;;;;;1.76;81.09;93815.75;5132001;27;20031;-73
2021/12/10 04:38:58;;;;;;;16.60;9.35;;;;;;;1.70;80.78;93822.09;5112406;28;20019;-73
2021/12/10 04:41:24;;;;;;;16.40;10.20;;;;;;;1.67;81.50;93829.97;5113624;28;20040;-75
2021/12/10 04:43:49;;;;;;;20.45;12.65;;;;;;;1.66;81.83;93820.63;5113540;28;20498;-73
2021/12/10 04:46:15;;;;;;;23.67;14.40;;;;;;;1.69;83.03;93817.06;5095205;28;20035;-73
2021/12/10 04:48:48;;;;;;;26.20;15.02;;;;;;;1.67;82.21;93827.41;5112221;28;20027;-73
2021/12/10 04:51:14;;;;;;;22.30;12.52;;;;;;;1.50;82.72;93807.97;5113642;28;20035;-73
2021/12/10 04:53:39;;;;;;;24.85;12.93;;;;;;;1.62;82.02;93829.44;5112058;28;20050;-74
2021/12/10 04:56:05;;;;;;;19.67;12.35;;;;;;;1.66;81.79;93833.44;5112038;28;20034;-74
2021/12/10 04:58:32;;;;;;;24.27;13.73;;;;;;;1.61;82.21;93822.66;5112128;28;20027;-74
2021/12/10 05:00:57;;;;;;;26.83;15.18;;;;;;;1.73;82.39;93826.22;5095158;28;20024;-74
2021/12/10 05:03:23;;;;;;;26.23;16.35;;;;;;;1.69;82.31;93820.44;5111947;28;20047;-74
2021/12/10 05:05:48;;;;;;;22.90;14.02;;;;;;;1.70;83.13;93824.66;5120545;27;20031;-74
2021/12/10 05:08:14;;;;;;;21.63;13.23;;;;;;;1.60;82.87;93822.78;5131797;27;20031;-74
2021/12/10 05:10:40;;;;;;;19.58;11.98;;;;;;;1.65;82.66;93829.25;5132035;27;20035;-74
2021/12/10 05:13:05;;;;;;;21.23;12.60;;;;;;;1.69;82.48;93838.38;5114338;27;20031;-74
2021/12/10 05:15:32;;;;;;;16.02;9.52;;;;;;;1.67;82.53;93832.53;5133426;27;20027;-74
2021/12/10 05:17:58;;;;;;;13.15;8.27;;;;;;;1.60;81.88;93822.78;5132387;27;20032;-74
2021/12/10 05:20:33;;;;;;;19.83;11.93;;;;;;;1.72;81.64;93838.16;5132030;27;20039;-74
2021/12/10 05:22:58;;;;;;;36.83;20.55;;;;;;;1.73;82.08;93834.69;5133810;27;20031;-74
2021/12/10 05:25:25;;;;;;;76.40;41.40;;;;;;;1.76;81.76;93838.81;5114731;27;20065;-74
2021/12/10 05:27:51;;;;;;;80.28;47.95;;;;;;;1.76;81.93;93836.25;5115099;27;20028;-74
2021/12/10 05:30:17;;;;;;;89.70;50.40;;;;;;;1.80;82.24;93837.69;5110539;27;20046;-74
2021/12/10 05:32:43;;;;;;;54.72;30.75;;;;;;;1.70;81.86;93836.63;5126886;27;20023;-74
2021/12/10 05:35:08;;;;;;;35.83;21.92;;;;;;;1.73;81.91;93859.50;5132070;27;20103;-74
2021/12/10 05:37:34;;;;;;;47.47;26.80;;;;;;;1.73;81.35;93862.88;5134580;27;20103;-74
2021/12/10 05:39:59;;;;;;;88.75;42.25;;;;;;;1.65;82.54;93857.41;5130842;27;20413;-74
2021/12/10 05:42:24;;;;;;;72.63;38.47;;;;;;;1.65;82.06;93839.50;5113989;27;20454;-73
2021/12/10 05:44:51;;;;;;;111.95;49.97;;;;;;;1.73;81.63;93860.31;5111524;27;20027;-74
2021/12/10 05:47:17;;;;;;;97.22;43.45;;;;;;;1.72;81.73;93857.84;5128631;27;20038;-74
2021/12/10 05:49:43;;;;;;;82.35;40.50;;;;;;;1.72;81.75;93850.97;5131902;27;20019;-73
2021/12/10 05:52:08;;;;;;;347.45;142.98;;;;;;;1.74;81.25;93849.13;5130295;27;20417;-74
2021/12/10 05:54:34;;;;;;;170.10;68.28;;;;;;;1.66;80.44;93830.06;5130592;27;20494;-73
2021/12/10 05:57:01;;;;;;;209.23;81.22;;;;;;;1.67;81.11;93844.50;5132430;27;20031;-74
2021/12/10 05:59:26;;;;;;;177.88;68.95;;;;;;;1.62;81.52;93842.25;5113030;27;20085;-74
2021/12/10 06:01:52;;;;;;;70.47;33.67;;;;;;;1.60;81.41;93828.72;5096469;27;20510;-73
2021/12/10 06:04:22;;;;;;;39.10;21.45;;;;;;;1.73;83.97;93837.25;5129509;27;20083;-74
2021/12/10 06:06:48;;;;;;;30.33;16.90;;;;;;;1.76;83.51;93841.38;5125281;27;20046;-74
2021/12/10 06:09:13;;;;;;;34.17;17.83;;;;;;;1.76;82.68;93831.13;5128288;27;20244;-73
2021/12/10 06:11:39;;;;;;;136.57;58.92;;;;;;;1.58;82.51;93824.59;5110550;28;20031;-73
2021/12/10 06:14:04;;;;;;;100.35;49.08;;;;;;;1.63;82.18;93851.56;5093558;28;20035;-74
2021/12/10 06:16:30;;;;;;;69.70;34.00;;;;;;;1.74;82.83;93840.63;5111898;28;20058;-74
2021/12/10 06:18:56;;;;;;;47.78;23.75;;;;;;;1.66;84.86;93825.75;5119327;27;20087;-73
2021/12/10 06:21:21;;;;;;;72.20;31.83;;;;;;;1.66;86.65;93815.50;5104216;28;20039;-74
2021/12/10 06:23:47;;;;;;;55.75;27.13;;;;;;;1.92;87.11;93830.94;5086863;28;20417;-72
2021/12/10 06:26:12;;;;;;;65.50;30.10;;;;;;;1.93;86.94;93825.72;5107748;28;20039;-72
2021/12/10 06:28:38;;;;;;;74.28;38.22;;;;;;;1.98;86.37;93828.00;5106076;28;20032;-73
2021/12/10 06:31:04;;;;;;;62.97;30.48;;;;;;;1.90;85.35;93810.56;5111322;28;20509;-72
2021/12/10 06:33:29;;;;;;;51.45;25.70;;;;;;;1.97;84.46;93821.22;5103920;27;20059;-72
2021/12/10 06:35:57;;;;;;;40.08;22.25;;;;;;;1.98;83.78;93830.56;5132436;27;20050;-72
2021/12/10 06:38:23;;;;;;;33.00;19.02;;;;;;;1.91;83.52;93816.50;5142699;27;20031;-72
2021/12/10 06:40:48;;;;;;;34.85;18.25;;;;;;;1.99;83.55;93809.16;5122804;27;20106;-72
2021/12/10 06:43:14;;;;;;;27.65;15.23;;;;;;;2.00;83.54;93790.28;5093445;28;20031;-72
2021/12/10 06:45:39;;;;;;;27.23;13.60;;;;;;;2.02;82.87;93788.44;5092476;28;20020;-72
2021/12/10 06:48:06;;;;;;;19.83;12.35;;;;;;;2.03;82.30;93779.81;5114746;27;20038;-72
2021/12/10 06:50:34;;;;;;;22.25;12.77;;;;;;;2.05;82.05;93788.25;5129807;27;20041;-72
2021/12/10 06:52:59;;;;;;;25.05;17.33;;;;;;;2.01;82.71;93795.31;5121601;28;20462;-72
2021/12/10 06:55:25;;;;;;;59.15;34.28;;;;;;;1.94;82.88;93790.69;5109875;28;20031;-72
2021/12/10 06:57:51;;;;;;;85.85;46.58;;;;;;;1.81;83.11;93807.75;5117949;27;20161;-72
2021/12/10 07:00:28;;;;;;;121.85;60.17;;;;;;;1.81;84.49;93807.75;5123580;28;20404;-72
2021/12/10 07:02:53;;;;;;;96.68;52.30;;;;;;;1.89;84.08;93802.97;5112989;28;20035;-72
2021/12/10 07:05:18;;;;;;;102.72;53.17;;;;;;;2.01;83.73;93807.31;5118595;28;20030;-72
2021/12/10 07:07:44;;;;;;;94.75;49.63;;;;;;;2.08;83.29;93803.41;5116736;28;20043;-72
2021/12/10 07:10:10;;;;;;;74.38;39.92;;;;;;;2.13;82.99;93798.81;5110041;28;20115;-72
2021/12/10 07:12:37;;;;;;;109.43;53.65;;;;;;;2.09;82.96;93807.63;5092333;28;20039;-72
2021/12/10 07:15:03;;;;;;;74.82;40.05;;;;;;;2.20;82.81;93815.44;5124955;28;20119;-73
2021/12/10 07:17:29;;;;;;;113.53;56.17;;;;;;;2.29;83.24;93819.13;5129031;28;20102;-72
2021/12/10 07:19:55;;;;;;;117.57;55.30;;;;;;;2.23;83.19;93801.59;5127857;28;20042;-72
2021/12/10 07:22:20;;;;;;;108.63;55.00;;;;;;;2.33;83.21;93817.97;5109315;27;20028;-72
2021/12/10 07:24:45;;;;;;;105.00;53.72;;;;;;;2.37;82.65;93818.63;5144236;27;20029;-72
2021/12/10 07:27:12;;;;;;;77.60;40.90;;;;;;;2.31;83.15;93813.88;5144961;27;20035;-73
2021/12/10 07:29:39;;;;;;;111.15;55.47;;;;;;;2.41;82.90;93830.28;5130663;27;20450;-72
2021/12/10 07:32:05;;;;;;;99.82;53.08;;;;;;;2.37;82.74;93834.00;5130482;27;20127;-72
2021/12/10 07:34:30;;;;;;;96.47;46.85;;;;;;;2.37;82.35;93834.00;5112185;28;20485;-72
2021/12/10 07:36:55;;;;;;;143.35;64.22;;;;;;;2.32;83.78;93830.91;5115773;27;20039;-72
2021/12/10 07:39:21;;;;;;;141.73;69.55;;;;;;;2.22;85.13;93826.38;5129877;27;20027;-72
2021/12/10 07:41:47;;;;;;;114.35;54.72;;;;;;;2.35;85.10;93820.47;5132659;27;20035;-72
2021/12/10 07:44:12;;;;;;;94.82;47.08;;;;;;;2.47;84.70;93825.56;5127441;27;20030;-72
2021/12/10 07:46:39;;;;;;;79.15;43.08;;;;;;;2.56;84.71;93813.88;5121132;27;20034;-72
2021/12/10 07:49:07;;;;;;;79.38;42.15;;;;;;;2.61;84.05;93811.81;5151127;27;20377;-72
2021/12/10 07:51:33;;;;;;;67.57;38.50;;;;;;;2.67;83.64;93806.31;5132901;27;20118;-73
2021/12/10 07:53:59;;;;;;;76.30;41.38;;;;;;;2.72;83.54;93800.03;5131842;27;20094;-73
2021/12/10 07:56:26;;;;;;;96.70;56.50;;;;;;;2.73;82.89;93789.69;5115901;27;20035;-73
2021/12/10 07:58:52;;;;;;;94.65;52.28;;;;;;;2.76;82.97;93804.00;5115936;27;20034;-73
2021/12/10 08:01:26;;;;;;;108.47;61.53;;;;;;;2.78;83.63;93817.56;5115031;27;20521;-72
2021/12/10 08:03:52;;;;;;;112.22;62.05;;;;;;;2.79;83.48;93808.97;5132865;27;20027;-73
2021/12/10 08:06:20;;;;;;;142.73;78.32;;;;;;;2.82;83.81;93811.31;5115559;27;20049;-73
2021/12/10 08:08:46;;;;;;;156.35;78.38;;;;;;;2.71;85.33;93812.03;5104708;28;20497;-72
2021/12/10 08:11:12;;;;;;;140.02;70.43;;;;;;;2.83;84.93;93816.31;5130327;27;20035;-72
2021/12/10 08:13:37;;;;;;;140.70;74.25;;;;;;;2.74;84.12;93780.22;5111525;28;20042;-72
2021/12/10 08:16:04;;;;;;;162.52;82.80;;;;;;;2.89;83.77;93808.19;5113904;27;20489;-72
2021/12/10 08:18:29;;;;;;;200.20;97.15;;;;;;;2.86;83.60;93803.28;5128794;27;20159;-72
2021/12/10 08:20:55;;;;;;;184.10;90.68;;;;;;;3.05;82.38;93837.94;5150676;27;20519;-73
2021/12/10 08:23:21;;;;;;;191.73;93.53;;;;;;;3.09;83.74;93829.94;5152066;27;20485;-72
2021/12/10 08:25:47;;;;;;;169.77;84.35;;;;;;;3.23;83.01;93808.44;5132143;27;20035;-72
2021/12/10 08:28:13;;;;;;;150.55;72.18;;;;;;;3.16;81.68;93788.44;5116047;27;20505;-72
2021/12/10 08:30:38;;;;;;;137.27;67.63;;;;;;;3.27;81.15;93798.78;5115695;27;20048;-72
2021/12/10 08:33:10;;;;;;;111.50;58.85;;;;;;;3.29;80.71;93792.59;5084249;27;20035;-74
2021/12/10 08:35:36;;;;;;;119.00;60.33;;;;;;;3.36;80.64;93795.56;5132352;27;20156;-72
2021/12/10 08:38:02;;;;;;;162.18;90.68;;;;;;;3.34;79.53;93815.38;5113545;28;20032;-73
2021/12/10 08:40:51;;;;;;;140.60;78.32;;;;;;;3.10;81.85;93803.34;5095410;28;20099;-73
2021/12/10 08:43:16;;;;;;;145.57;83.70;;;;;;;3.10;83.05;93820.50;5113615;28;20038;-73
2021/12/10 08:45:42;;;;;;;137.73;77.32;;;;;;;3.13;82.68;93813.38;5112012;28;20028;-72
2021/12/10 08:48:08;;;;;;;244.30;115.80;;;;;;;2.91;83.81;93805.53;5095208;28;20545;-73
2021/12/10 08:50:34;;;;;;;337.10;145.73;;;;;;;2.87;84.99;93811.78;5112152;28;20055;-73
2021/12/10 08:53:02;;;;;;;452.98;189.73;;;;;;;2.72;85.69;93817.97;5113314;28;20476;-73
2021/12/10 08:55:27;;;;;;;426.75;173.05;;;;;;;2.79;86.30;93811.53;5113222;28;20020;-73
2021/12/10 08:57:53;;;;;;;284.25;121.45;;;;;;;2.95;86.07;93813.84;5113122;27;20424;-73
2021/12/10 09:00:20;;;;;;;235.82;102.72;;;;;;;2.99;85.97;93813.53;5081016;27;20031;-72
2021/12/10 09:02:47;;;;;;;221.85;99.28;;;;;;;3.05;85.74;93800.28;5136319;27;20529;-73
2021/12/10 09:05:12;;;;;;;195.48;91.45;;;;;;;3.08;85.11;93794.91;5146094;27;20065;-73
2021/12/10 09:07:38;;;;;;;174.15;82.32;;;;;;;3.12;84.17;93795.50;5132703;27;20051;-73
2021/12/10 09:10:08;;;;;;;192.95;93.63;;;;;;;3.08;83.44;93805.19;5133468;27;20042;-73
2021/12/10 09:12:33;;;;;;;217.45;103.90;;;;;;;3.13;83.48;93794.59;5132505;27;20088;-73
2021/12/10 09:15:04;;;;;;;256.33;121.93;;;;;;;3.17;84.18;93796.03;5133391;27;20035;-73
2021/12/10 09:17:30;;;;;;;227.50;107.88;;;;;;;3.17;84.21;93782.38;5141593;27;20026;-73
2021/12/10 09:19:57;;;;;;;199.77;93.22;;;;;;;3.22;83.14;93770.03;5152326;27;20027;-72
2021/12/10 09:22:23;;;;;;;187.35;96.07;;;;;;;3.18;82.45;93779.72;5135729;27;20035;-73
2021/12/10 09:24:49;;;;;;;231.75;103.78;;;;;;;3.18;82.71;93782.28;5153926;27;20034;-73
2021/12/10 09:27:14;;;;;;;233.50;108.68;;;;;;;3.20;82.58;93787.28;5152905;27;20470;-73
2021/12/10 09:29:44;;;;;;;254.70;112.95;;;;;;;3.23;83.46;93781.94;5108611;27;20030;-75
2021/12/10 09:32:11;;;;;;;244.43;106.63;;;;;;;3.24;83.30;93778.47;5111552;28;20035;-73
2021/12/10 09:34:36;;;;;;;272.83;121.22;;;;;;;3.09;83.15;93765.78;5128379;27;20024;-78
2021/12/10 09:37:03;;;;;;;279.63;119.97;;;;;;;3.24;83.88;93779.28;5094392;28;20055;-73
2021/12/10 09:39:30;;;;;;;262.52;117.30;;;;;;;3.21;83.54;93761.53;5111001;28;20401;-75
2021/12/10 09:41:56;;;;;;;289.52;135.73;;;;;;;3.08;84.64;93764.13;5111272;28;20046;-73
2021/12/10 09:44:21;;;;;;;318.10;133.88;;;;;;;3.03;85.02;93768.75;5112221;28;20107;-73
2021/12/10 09:46:47;;;;;;;289.52;121.13;;;;;;;3.13;84.76;93764.63;5111287;28;20036;-73
2021/12/10 09:49:13;;;;;;;247.50;108.28;;;;;;;3.14;85.43;93763.69;5110994;28;20027;-73
2021/12/10 09:51:43;;;;;;;228.57;100.60;;;;;;;3.13;84.61;93754.34;5110971;28;20070;-73
2021/12/10 09:54:11;;;;;;;198.30;89.73;;;;;;;3.25;84.52;93757.00;5128043;27;20027;-73
2021/12/10 09:56:53;;;;;;;176.05;83.63;;;;;;;3.36;84.24;93763.00;5111051;28;20746;-73
2021/12/10 09:59:18;;;;;;;171.57;77.15;;;;;;;3.39;83.55;93764.53;5111519;28;20409;-73
2021/12/10 10:01:46;;;;;;;180.20;82.50;;;;;;;3.46;83.34;93763.16;5110972;27;20414;-73
2021/12/10 10:04:11;;;;;;;173.15;81.60;;;;;;;3.50;82.96;93753.50;5110645;28;20028;-73
2021/12/10 10:06:43;;;;;;;193.18;88.82;;;;;;;3.51;83.91;93744.84;5093549;28;20058;-73
2021/12/10 10:09:09;;;;;;;192.90;91.88;;;;;;;3.53;83.38;93735.28;5110625;28;20477;-73
2021/12/10 10:11:35;;;;;;;185.65;91.70;;;;;;;3.54;83.50;93742.09;5111937;28;20040;-73
2021/12/10 10:14:01;;;;;;;172.65;84.75;;;;;;;3.62;82.64;93737.19;5110538;28;20032;-72
2021/12/10 10:16:27;;;;;;;138.68;68.72;;;;;;;3.66;83.16;93733.47;5110317;28;20032;-73
2021/12/10 10:18:53;;;;;;;129.32;63.20;;;;;;;3.72;82.87;93730.44;5110609;28;20501;-73
2021/12/10 10:21:21;;;;;;;176.18;82.88;;;;;;;3.78;82.72;93734.31;5110408;28;20100;-73
2021/12/10 10:23:47;;;;;;;164.80;79.75;;;;;;;3.67;82.79;93717.13;5110698;28;20303;-73
2021/12/10 10:26:16;;;;;;;183.32;90.43;;;;;;;3.75;83.05;93719.94;5111685;28;20028;-73
2021/12/10 10:28:41;;;;;;;191.30;91.00;;;;;;;3.88;82.36;93717.31;5110687;28;20059;-73
2021/12/10 10:31:11;;;;;;;194.70;93.60;;;;;;;3.90;82.24;93710.31;5110201;28;20059;-73
2021/12/10 10:33:38;;;;;;;190.30;92.15;;;;;;;3.92;82.30;93707.63;5110239;28;20027;-73
2021/12/10 10:36:07;;;;;;;198.93;86.68;;;;;;;3.96;82.12;93701.31;5127364;27;20038;-73
2021/12/10 10:38:32;;;;;;;182.15;90.38;;;;;;;3.96;81.56;93706.47;5111479;28;20030;-73
2021/12/10 10:41:02;;;;;;;186.18;94.47;;;;;;;3.87;81.54;93697.66;5127306;27;20032;-73
2021/12/10 10:43:29;;;;;;;200.05;104.35;;;;;;;3.96;81.28;93714.19;5110179;28;20401;-73
2021/12/10 10:45:55;;;;;;;262.40;137.60;;;;;;;3.92;81.03;93703.28;5111280;28;20047;-73
2021/12/10 10:48:20;;;;;;;195.40;101.13;;;;;;;3.97;80.98;93701.19;5093108;28;20475;-73
2021/12/10 10:50:50;;;;;;;164.93;81.15;;;;;;;4.02;80.91;93713.72;5109968;28;20032;-72
2021/12/10 10:53:16;;;;;;;164.38;79.55;;;;;;;4.00;81.01;93700.16;5109959;28;20024;-72
2021/12/10 10:56:08;;;;;;;161.07;77.97;;;;;;;4.02;81.25;93698.28;5110120;28;20464;-72
2021/12/10 10:58:36;;;;;;;293.30;151.60;;;;;;;4.03;81.58;93711.00;5110970;28;20035;-72
2021/12/10 11:01:20;;;;;;;244.13;134.10;;;;;;;4.00;81.91;93697.59;5111182;28;20106;-73
2021/12/10 11:03:52;;;;;;;192.55;101.45;;;;;;;4.03;82.26;93698.16;5125838;28;20401;-73
2021/12/10 11:06:39;;;;;;;168.25;89.80;;;;;;;4.06;82.27;93699.69;5126494;28;20422;-72
2021/12/10 11:09:32;;;;;;;162.18;81.20;;;;;;;4.08;82.16;93708.09;5111700;28;20042;-73
2021/12/10 11:12:01;;;;;;;158.18;77.68;;;;;;;4.06;82.29;93693.72;5113691;28;20059;-73
2021/12/10 11:14:40;;;;;;;171.27;83.13;;;;;;;4.03;82.67;93716.16;5113833;28;20035;-73
2021/12/10 11:17:12;;;;;;;149.80;74.38;;;;;;;4.07;82.39;93714.19;5114712;27;20043;-73
2021/12/10 11:19:41;;;;;;;131.25;60.80;;;;;;;4.08;83.12;93722.72;5114182;27;20145;-73
2021/12/10 11:22:12;;;;;;;129.88;63.92;;;;;;;4.08;82.87;93733.00;5130662;27;20028;-73
2021/12/10 11:24:44;;;;;;;123.20;51.08;;;;;;;4.17;83.08;93707.41;5131016;27;20054;-72
2021/12/10 11:27:29;;;;;;;101.18;45.20;;;;;;;4.22;82.87;93689.06;5114174;28;20455;-72
2021/12/10 11:30:04;;;;;;;88.68;43.25;;;;;;;4.14;83.05;93668.28;5115011;28;20573;-72
2021/12/10 11:32:36;;;;;;;72.50;34.50;;;;;;;4.19;82.71;93679.84;5113780;28;20479;-73